Baker, West Virginia
Current Conditions -  °F | °C
As of 9:55 PM on Monday 20 Oct 2014 (Local Time) from K8W2 Reporting Station
Overcast Overcast  
Wind Chill: 58°   Ceiling: 7000
Heat Index: 58°   Visibility: 10mi
Dew Point: 49°   Wind: 0mph
Humidity: 72%   Direction: NA
Pressure: 29.93"   Gusts: NA
Location:  39.04°N, 78.74°W
Report Text: K8W2 210155Z AUTO 00000KT 10SM BKN070 BKN090 OVC110 15/10 A2993 RMK AO1 T01450096
Loading
Personal Weather Stations






























Interactive Weather Map
Tropical Storm Tracking
New forecast layout! Learn more

10-Day Weather Forecast

Advertisements
Track Severe Weather on mobile